createdAt,value
2022-09-14T00:00:51.593Z,996.61
2022-09-14T00:01:51.580Z,996.63
2022-09-14T00:02:51.582Z,996.62
2022-09-14T00:03:51.557Z,996.61
2022-09-14T00:04:51.555Z,996.66
2022-09-14T00:05:51.551Z,996.69
2022-09-14T00:06:51.540Z,996.57
2022-09-14T00:07:51.521Z,996.55
2022-09-14T00:08:51.509Z,996.54
2022-09-14T00:09:51.498Z,996.49
2022-09-14T00:10:51.487Z,996.51
2022-09-14T00:11:51.481Z,996.47
2022-09-14T00:12:51.465Z,996.43
2022-09-14T00:13:51.455Z,996.45
2022-09-14T00:14:51.450Z,996.41
2022-09-14T00:15:51.438Z,996.39
2022-09-14T00:16:51.428Z,996.44
2022-09-14T00:17:51.415Z,996.45
2022-09-14T00:18:51.406Z,996.45
2022-09-14T00:19:51.395Z,996.46
2022-09-14T00:20:51.391Z,996.45
2022-09-14T00:21:51.367Z,996.51
2022-09-14T00:22:51.359Z,996.45
2022-09-14T00:23:51.352Z,996.45
2022-09-14T00:24:51.341Z,996.46
2022-09-14T00:25:51.333Z,996.52
2022-09-14T00:26:51.336Z,996.53
2022-09-14T00:27:51.308Z,996.51
2022-09-14T00:28:51.301Z,996.54
2022-09-14T00:29:51.299Z,996.49
2022-09-14T00:30:51.274Z,996.38
2022-09-14T00:31:51.271Z,996.39
2022-09-14T00:32:51.263Z,996.43
2022-09-14T00:33:51.250Z,996.4
2022-09-14T00:34:51.258Z,996.37
2022-09-14T00:35:51.256Z,996.36
2022-09-14T00:36:51.240Z,996.36
2022-09-14T00:37:51.205Z,996.28
2022-09-14T00:38:51.198Z,996.32
2022-09-14T00:39:51.217Z,996.28
2022-09-14T00:40:51.171Z,996.31
2022-09-14T00:41:51.160Z,996.29
2022-09-14T00:42:51.153Z,996.28
2022-09-14T00:43:51.148Z,996.3
2022-09-14T00:44:51.154Z,996.28
2022-09-14T00:45:51.116Z,996.34
2022-09-14T00:46:51.110Z,996.33
2022-09-14T00:47:51.095Z,996.27
2022-09-14T00:48:51.086Z,996.33
2022-09-14T00:49:51.092Z,996.32
2022-09-14T00:50:51.084Z,996.27
2022-09-14T00:51:51.057Z,996.26
2022-09-14T00:52:51.065Z,996.26
2022-09-14T00:53:51.054Z,996.26
2022-09-14T00:54:51.024Z,996.17
2022-09-14T00:55:51.016Z,996.2
2022-09-14T00:56:51.004Z,996.21
2022-09-14T00:57:50.993Z,996.18
2022-09-14T00:58:50.988Z,996.11
2022-09-14T00:59:50.987Z,996.12
2022-09-14T01:00:50.967Z,996.15
2022-09-14T01:01:50.987Z,996.13
2022-09-14T01:02:50.944Z,996.09
2022-09-14T01:03:50.938Z,996.11
2022-09-14T01:04:50.916Z,996.13
2022-09-14T01:05:50.929Z,996.16
2022-09-14T01:06:50.895Z,996.09
2022-09-14T01:07:50.906Z,996.14
2022-09-14T01:08:50.874Z,996.08
2022-09-14T01:09:50.869Z,996.1
2022-09-14T01:10:50.856Z,996.07
2022-09-14T01:11:50.844Z,996.1
2022-09-14T01:12:50.856Z,996.08
2022-09-14T01:13:50.836Z,996.06
2022-09-14T01:14:50.813Z,996.06
2022-09-14T01:15:50.824Z,996.04
2022-09-14T01:16:50.792Z,996.03
2022-09-14T01:17:50.779Z,995.97
2022-09-14T01:18:50.782Z,995.94
2022-09-14T01:19:50.758Z,995.91
2022-09-14T01:20:50.748Z,995.94
2022-09-14T01:21:50.753Z,995.93
2022-09-14T01:22:50.749Z,995.91
2022-09-14T01:23:50.718Z,995.96
2022-09-14T01:24:50.715Z,995.92
2022-09-14T01:25:50.696Z,995.9
2022-09-14T01:26:50.684Z,995.9
2022-09-14T01:27:50.687Z,995.89
2022-09-14T01:28:50.676Z,995.84
2022-09-14T01:29:50.664Z,995.87
2022-09-14T01:30:50.642Z,995.85
2022-09-14T01:31:50.634Z,995.87
2022-09-14T01:32:50.625Z,995.9
2022-09-14T01:33:50.612Z,995.84
2022-09-14T01:34:50.616Z,995.84
2022-09-14T01:35:50.599Z,995.8
2022-09-14T01:36:50.579Z,995.81
2022-09-14T01:37:50.591Z,995.93
2022-09-14T01:38:50.558Z,995.84
2022-09-14T01:39:50.565Z,995.83
2022-09-14T01:40:50.546Z,995.9
2022-09-14T01:41:50.528Z,995.86
2022-09-14T01:42:50.522Z,995.89
2022-09-14T01:43:50.516Z,995.89
2022-09-14T01:44:50.492Z,995.95
2022-09-14T01:45:50.496Z,995.95
2022-09-14T01:46:50.470Z,995.99
2022-09-14T01:47:50.518Z,995.97
2022-09-14T01:48:50.465Z,996.03
2022-09-14T01:49:50.442Z,995.96
2022-09-14T01:50:50.433Z,996
2022-09-14T01:51:50.426Z,995.97
2022-09-14T01:52:50.423Z,996
2022-09-14T01:53:50.413Z,995.9
2022-09-14T01:54:50.385Z,995.87
2022-09-14T01:55:50.377Z,995.91
2022-09-14T01:56:50.369Z,995.83
2022-09-14T01:57:50.354Z,995.8
2022-09-14T01:58:50.347Z,995.87
2022-09-14T01:59:50.337Z,995.9
2022-09-14T02:00:50.324Z,995.92
2022-09-14T02:01:50.313Z,995.88
2022-09-14T02:02:50.309Z,995.85
2022-09-14T02:03:50.293Z,995.78
2022-09-14T02:04:50.296Z,995.7
2022-09-14T02:05:50.288Z,995.66
2022-09-14T02:06:50.260Z,995.71
2022-09-14T02:07:50.264Z,995.66
2022-09-14T02:08:50.241Z,995.75
2022-09-14T02:09:50.233Z,995.79
2022-09-14T02:10:50.216Z,995.75
2022-09-14T02:11:50.207Z,995.83
2022-09-14T02:12:50.193Z,995.81
2022-09-14T02:13:50.219Z,995.82
2022-09-14T02:14:50.180Z,995.83
2022-09-14T02:15:50.159Z,995.81
2022-09-14T02:16:50.157Z,995.74
2022-09-14T02:17:50.147Z,995.77
2022-09-14T02:18:50.131Z,995.73
2022-09-14T02:19:50.119Z,995.7
2022-09-14T02:20:50.112Z,995.72
2022-09-14T02:21:50.112Z,995.72
2022-09-14T02:22:50.083Z,995.64
2022-09-14T02:23:50.075Z,995.65
2022-09-14T02:24:50.064Z,995.64
2022-09-14T02:25:50.050Z,995.64
2022-09-14T02:26:50.068Z,995.64
2022-09-14T02:27:50.033Z,995.6
2022-09-14T02:28:50.021Z,995.62
2022-09-14T02:29:50.007Z,995.61
2022-09-14T02:30:50.018Z,995.61
2022-09-14T02:31:49.989Z,995.64
2022-09-14T02:32:49.974Z,995.6
2022-09-14T02:33:49.976Z,995.63
2022-09-14T02:34:49.971Z,995.58
2022-09-14T02:35:49.940Z,995.52
2022-09-14T02:36:49.934Z,995.6
2022-09-14T02:37:49.930Z,995.61
2022-09-14T02:38:49.911Z,995.59
2022-09-14T02:39:49.904Z,995.65
2022-09-14T02:40:49.898Z,995.6
2022-09-14T02:41:49.880Z,995.6
2022-09-14T02:42:49.870Z,995.61
2022-09-14T02:43:49.864Z,995.63
2022-09-14T02:44:49.853Z,995.55
2022-09-14T02:45:49.855Z,995.55
2022-09-14T02:46:49.825Z,995.53
2022-09-14T02:47:49.826Z,995.52
2022-09-14T02:48:49.804Z,995.55
2022-09-14T02:49:49.804Z,995.45
2022-09-14T02:50:49.787Z,995.4
2022-09-14T02:51:49.777Z,995.43
2022-09-14T02:52:49.774Z,995.37
2022-09-14T02:53:49.749Z,995.39
2022-09-14T02:54:49.765Z,995.35
2022-09-14T02:55:49.738Z,995.32
2022-09-14T02:56:49.719Z,995.37
2022-09-14T02:57:49.707Z,995.39
2022-09-14T02:58:49.700Z,995.34
2022-09-14T02:59:49.704Z,995.31
2022-09-14T03:00:49.679Z,995.29
2022-09-14T03:01:49.667Z,995.32
2022-09-14T03:02:49.660Z,995.32
2022-09-14T03:03:49.644Z,995.29
2022-09-14T03:04:49.705Z,995.28
2022-09-14T03:05:49.617Z,995.25
2022-09-14T03:06:49.609Z,995.24
2022-09-14T03:07:49.597Z,995.24
2022-09-14T03:08:49.584Z,995.21
2022-09-14T03:09:49.573Z,995.19
2022-09-14T03:10:49.574Z,995.21
2022-09-14T03:11:49.551Z,995.19
2022-09-14T03:12:49.545Z,995.17
2022-09-14T03:13:49.530Z,995.12
2022-09-14T03:14:49.538Z,995.1
2022-09-14T03:15:49.512Z,995.12
2022-09-14T03:16:49.500Z,995.13
2022-09-14T03:17:49.491Z,995.11
2022-09-14T03:18:49.482Z,995.16
2022-09-14T03:19:49.469Z,995.11
2022-09-14T03:20:49.509Z,995.12
2022-09-14T03:21:49.449Z,995.19
2022-09-14T03:22:49.432Z,995.14
2022-09-14T03:23:49.551Z,995.25
2022-09-14T03:24:49.423Z,995.28
2022-09-14T03:25:49.400Z,995.22
2022-09-14T03:26:49.391Z,995.24
2022-09-14T03:27:49.375Z,995.22
2022-09-14T03:28:49.367Z,995.18
2022-09-14T03:29:49.377Z,995.16
2022-09-14T03:30:49.378Z,995.2
2022-09-14T03:31:49.333Z,995.2
2022-09-14T03:32:49.336Z,995.1
2022-09-14T03:33:49.337Z,995.17
2022-09-14T03:34:49.306Z,995.18
2022-09-14T03:35:49.304Z,995.21
2022-09-14T03:36:49.285Z,995.24
2022-09-14T03:37:49.276Z,995.16
2022-09-14T03:38:49.275Z,995.18
2022-09-14T03:39:49.243Z,995.16
2022-09-14T03:40:49.271Z,995.13
2022-09-14T03:41:49.223Z,995.13
2022-09-14T03:42:49.232Z,995.16
2022-09-14T03:43:49.206Z,995.1
2022-09-14T03:44:49.195Z,995.09
2022-09-14T03:45:49.183Z,995.11
2022-09-14T03:46:49.183Z,995.08
2022-09-14T03:47:49.156Z,995.07
2022-09-14T03:48:49.147Z,995.01
2022-09-14T03:49:49.141Z,995
2022-09-14T03:50:49.149Z,995.03
2022-09-14T03:51:49.116Z,995.03
2022-09-14T03:52:49.122Z,994.99
2022-09-14T03:53:49.118Z,994.96
2022-09-14T03:54:49.084Z,994.94
2022-09-14T03:55:49.084Z,994.93
2022-09-14T03:56:49.080Z,994.93
2022-09-14T03:57:49.074Z,994.9
2022-09-14T03:58:49.044Z,994.91
2022-09-14T03:59:49.061Z,994.88
2022-09-14T04:00:49.023Z,994.9
2022-09-14T04:01:49.025Z,994.93
2022-09-14T04:02:49.007Z,994.94
2022-09-14T04:03:48.989Z,994.92
2022-09-14T04:04:48.992Z,994.93
2022-09-14T04:05:48.974Z,994.93
2022-09-14T04:06:48.963Z,994.99
2022-09-14T04:07:48.949Z,994.93
2022-09-14T04:08:48.947Z,994.98
2022-09-14T04:09:48.931Z,995.01
2022-09-14T04:10:48.922Z,994.96
2022-09-14T04:11:48.931Z,994.99
2022-09-14T04:12:48.891Z,994.94
2022-09-14T04:13:48.887Z,994.92
2022-09-14T04:14:48.871Z,994.94
2022-09-14T04:15:48.866Z,994.9
2022-09-14T04:16:48.869Z,994.98
2022-09-14T04:17:48.837Z,994.94
2022-09-14T04:18:48.866Z,994.97
2022-09-14T04:19:48.830Z,994.99
2022-09-14T04:20:48.810Z,994.97
2022-09-14T04:21:48.800Z,994.92
2022-09-14T04:22:48.791Z,994.9
2022-09-14T04:23:48.791Z,994.87
2022-09-14T04:24:48.771Z,994.87
2022-09-14T04:25:48.758Z,994.8
2022-09-14T04:26:48.749Z,994.86
2022-09-14T04:27:48.740Z,994.8
2022-09-14T04:28:48.746Z,994.83
2022-09-14T04:29:48.720Z,994.78
2022-09-14T04:30:48.711Z,994.85
2022-09-14T04:31:48.702Z,994.83
2022-09-14T04:32:48.688Z,994.75
2022-09-14T04:33:48.676Z,994.79
2022-09-14T04:34:48.664Z,994.76
2022-09-14T04:35:48.670Z,994.76
2022-09-14T04:36:48.639Z,994.74
2022-09-14T04:37:48.633Z,994.81
2022-09-14T04:38:48.625Z,994.81
2022-09-14T04:39:48.646Z,994.81
2022-09-14T04:40:48.640Z,994.85
2022-09-14T04:41:48.592Z,994.85
2022-09-14T04:42:48.595Z,994.89
2022-09-14T04:43:48.573Z,994.9
2022-09-14T04:44:48.562Z,994.82
2022-09-14T04:45:48.550Z,994.89
2022-09-14T04:46:48.551Z,994.87
2022-09-14T04:47:48.548Z,994.82
2022-09-14T04:48:48.514Z,994.85
2022-09-14T04:49:48.503Z,994.85
2022-09-14T04:50:48.493Z,994.89
2022-09-14T04:51:48.494Z,994.89
2022-09-14T04:52:48.474Z,994.92
2022-09-14T04:53:48.461Z,994.89
2022-09-14T04:54:48.469Z,994.89
2022-09-14T04:55:48.461Z,994.84
2022-09-14T04:56:48.433Z,994.78
2022-09-14T04:57:48.434Z,994.87
2022-09-14T04:58:48.452Z,994.75
2022-09-14T04:59:48.395Z,994.8
2022-09-14T05:00:48.391Z,994.79
2022-09-14T05:01:48.383Z,994.82
2022-09-14T05:02:48.367Z,994.75
2022-09-14T05:03:48.368Z,994.73
2022-09-14T05:04:48.364Z,994.78
2022-09-14T05:05:48.340Z,994.76
2022-09-14T05:06:48.349Z,994.73
2022-09-14T05:07:48.308Z,994.76
2022-09-14T05:08:48.308Z,994.73
2022-09-14T05:09:48.290Z,994.64
2022-09-14T05:10:48.277Z,994.72
2022-09-14T05:11:48.273Z,994.72
2022-09-14T05:12:48.256Z,994.69
2022-09-14T05:13:48.244Z,994.68
2022-09-14T05:14:48.237Z,994.7
2022-09-14T05:15:48.253Z,994.69
2022-09-14T05:16:48.263Z,994.78
2022-09-14T05:17:48.204Z,994.74
2022-09-14T05:18:48.185Z,994.73
2022-09-14T05:19:48.185Z,994.7
2022-09-14T05:20:48.178Z,994.74
2022-09-14T05:21:48.161Z,994.75
2022-09-14T05:22:48.149Z,994.7
2022-09-14T05:23:48.140Z,994.69
2022-09-14T05:24:48.127Z,994.72
2022-09-14T05:25:48.118Z,994.77
2022-09-14T05:26:48.113Z,994.81
2022-09-14T05:27:48.095Z,994.77
2022-09-14T05:28:48.211Z,994.73
2022-09-14T05:29:48.074Z,994.76
2022-09-14T05:30:48.067Z,994.72
2022-09-14T05:31:48.069Z,994.76
2022-09-14T05:32:48.037Z,994.76
2022-09-14T05:33:48.032Z,994.71
2022-09-14T05:34:48.029Z,994.74
2022-09-14T05:35:48.008Z,994.75
2022-09-14T05:36:47.997Z,994.72
2022-09-14T05:37:47.984Z,994.7
2022-09-14T05:38:47.987Z,994.64
2022-09-14T05:39:47.966Z,994.66
2022-09-14T05:40:47.961Z,994.68
2022-09-14T05:41:47.941Z,994.65
2022-09-14T05:42:47.931Z,994.71
2022-09-14T05:43:47.924Z,994.68
2022-09-14T05:44:47.915Z,994.65
2022-09-14T05:45:47.908Z,994.67
2022-09-14T05:46:47.946Z,994.63
2022-09-14T05:47:47.882Z,994.68
2022-09-14T05:48:47.955Z,994.61
2022-09-14T05:49:47.868Z,994.59
2022-09-14T05:50:47.874Z,994.64
2022-09-14T05:51:47.839Z,994.63
2022-09-14T05:52:47.833Z,994.61
2022-09-14T05:53:47.832Z,994.61
2022-09-14T05:54:47.808Z,994.67
2022-09-14T05:55:47.793Z,994.64
2022-09-14T05:56:47.811Z,994.66
2022-09-14T05:57:47.771Z,994.6
2022-09-14T05:58:47.794Z,994.54
2022-09-14T05:59:47.750Z,994.59
2022-09-14T06:00:47.760Z,994.57
2022-09-14T06:01:47.725Z,994.54
2022-09-14T06:02:47.715Z,994.62
2022-09-14T06:03:47.710Z,994.6
2022-09-14T06:04:47.697Z,994.59
2022-09-14T06:05:47.684Z,994.62
2022-09-14T06:06:47.672Z,994.63
2022-09-14T06:07:47.663Z,994.62
2022-09-14T06:08:47.658Z,994.65
2022-09-14T06:09:47.639Z,994.57
2022-09-14T06:10:47.627Z,994.58
2022-09-14T06:11:47.625Z,994.61
2022-09-14T06:12:47.617Z,994.58
2022-09-14T06:13:47.605Z,994.51
2022-09-14T06:14:47.594Z,994.56
2022-09-14T06:15:47.598Z,994.58
2022-09-14T06:16:47.563Z,994.55
2022-09-14T06:17:47.556Z,994.56
2022-09-14T06:18:49.414Z,994.52
2022-09-14T06:19:52.790Z,994.52
2022-09-14T06:20:47.528Z,994.37
2022-09-14T06:21:47.509Z,994.44
2022-09-14T06:22:47.505Z,994.33
2022-09-14T06:23:47.491Z,994.41
2022-09-14T06:24:47.480Z,994.32
2022-09-14T06:25:47.469Z,994.33
2022-09-14T06:26:47.466Z,994.33
2022-09-14T06:27:47.456Z,994.38
2022-09-14T06:28:47.435Z,994.44
2022-09-14T06:29:47.435Z,994.43
2022-09-14T06:30:47.412Z,994.41
2022-09-14T06:31:47.405Z,994.45
2022-09-14T06:32:47.392Z,994.43
2022-09-14T06:33:47.379Z,994.43
2022-09-14T06:34:47.392Z,994.45
2022-09-14T06:35:47.361Z,994.37
2022-09-14T06:36:47.349Z,994.38
2022-09-14T06:37:47.340Z,994.38
2022-09-14T06:38:47.329Z,994.37
2022-09-14T06:39:47.312Z,994.34
2022-09-14T06:40:47.304Z,994.36
2022-09-14T06:41:47.297Z,994.34
2022-09-14T06:42:47.283Z,994.31
2022-09-14T06:43:47.275Z,994.31
2022-09-14T06:44:47.260Z,994.32
2022-09-14T06:45:47.253Z,994.32
2022-09-14T06:46:47.236Z,994.31
2022-09-14T06:47:47.228Z,994.31
2022-09-14T06:48:47.215Z,994.36
2022-09-14T06:49:47.226Z,994.37
2022-09-14T06:50:47.194Z,994.33
2022-09-14T06:51:47.185Z,994.34
2022-09-14T06:52:47.215Z,994.35
2022-09-14T06:53:47.163Z,994.3
2022-09-14T06:54:47.155Z,994.33
2022-09-14T06:55:47.142Z,994.34
2022-09-14T06:56:47.130Z,994.29
2022-09-14T06:57:47.123Z,994.37
2022-09-14T06:58:47.148Z,994.36
2022-09-14T06:59:47.092Z,994.43
2022-09-14T07:00:47.084Z,994.4
2022-09-14T07:01:47.077Z,994.45
2022-09-14T07:02:47.062Z,994.46
2022-09-14T07:03:47.060Z,994.46
2022-09-14T07:04:47.039Z,994.43
2022-09-14T07:05:47.033Z,994.4
2022-09-14T07:06:47.039Z,994.43
2022-09-14T07:07:47.012Z,994.45
2022-09-14T07:08:47.014Z,994.41
2022-09-14T07:09:47.003Z,994.45
2022-09-14T07:10:47.039Z,994.4
2022-09-14T07:11:46.979Z,994.48
2022-09-14T07:12:46.955Z,994.46
2022-09-14T07:13:46.943Z,994.48
2022-09-14T07:14:46.943Z,994.52
2022-09-14T07:15:46.924Z,994.45
2022-09-14T07:16:46.909Z,994.51
2022-09-14T07:17:46.905Z,994.47
2022-09-14T07:18:46.891Z,994.52
2022-09-14T07:19:47.841Z,994.53
2022-09-14T07:20:46.867Z,994.54
2022-09-14T07:21:46.860Z,994.52
2022-09-14T07:22:46.847Z,994.53
2022-09-14T07:23:46.835Z,994.5
2022-09-14T07:24:46.824Z,994.53
2022-09-14T07:25:46.815Z,994.51
2022-09-14T07:26:46.803Z,994.51
2022-09-14T07:27:46.795Z,994.55
2022-09-14T07:28:46.791Z,994.52
2022-09-14T07:29:46.768Z,994.57
2022-09-14T07:30:46.760Z,994.56
2022-09-14T07:31:46.751Z,994.57
2022-09-14T07:32:46.749Z,994.58
2022-09-14T07:33:46.724Z,994.57
2022-09-14T07:34:46.724Z,994.59
2022-09-14T07:35:46.713Z,994.55
2022-09-14T07:36:46.695Z,994.58
2022-09-14T07:37:46.687Z,994.52
2022-09-14T07:38:46.675Z,994.51
2022-09-14T07:39:46.663Z,994.5
2022-09-14T07:40:46.656Z,994.52
2022-09-14T07:41:46.645Z,994.43
2022-09-14T07:42:46.632Z,994.42
2022-09-14T07:43:46.623Z,994.43
2022-09-14T07:44:46.624Z,994.51
2022-09-14T07:45:46.606Z,994.48
2022-09-14T07:46:46.594Z,994.52
2022-09-14T07:47:46.579Z,994.56
2022-09-14T07:48:46.570Z,994.53
2022-09-14T07:49:46.563Z,994.58
2022-09-14T07:50:46.549Z,994.59
2022-09-14T07:51:46.537Z,994.59
2022-09-14T07:52:46.538Z,994.57
2022-09-14T07:53:46.517Z,994.6
2022-09-14T07:54:46.506Z,994.53
2022-09-14T07:55:46.493Z,994.56
2022-09-14T07:56:46.482Z,994.55
2022-09-14T07:57:46.484Z,994.51
2022-09-14T07:58:46.468Z,994.49
2022-09-14T07:59:46.451Z,994.5
2022-09-14T08:00:46.444Z,994.47
2022-09-14T08:01:46.435Z,994.5
2022-09-14T08:02:46.444Z,994.5
2022-09-14T08:03:46.416Z,994.47
2022-09-14T08:04:46.401Z,994.42
2022-09-14T08:05:46.388Z,994.49
2022-09-14T08:06:46.375Z,994.45
2022-09-14T08:07:46.366Z,994.52
2022-09-14T08:08:46.359Z,994.44
2022-09-14T08:09:46.351Z,994.48
2022-09-14T08:10:46.340Z,994.52
2022-09-14T08:11:46.331Z,994.49
2022-09-14T08:12:46.347Z,994.52
2022-09-14T08:13:46.305Z,994.59
2022-09-14T08:14:46.294Z,994.56
2022-09-14T08:15:46.291Z,994.53
2022-09-14T08:16:46.276Z,994.57
2022-09-14T08:17:46.269Z,994.54
2022-09-14T08:18:46.250Z,994.57
2022-09-14T08:19:46.240Z,994.56
2022-09-14T08:20:46.234Z,994.54
2022-09-14T08:21:46.239Z,994.51
2022-09-14T08:22:46.211Z,994.49
2022-09-14T08:23:46.205Z,994.5
2022-09-14T08:24:46.193Z,994.5
2022-09-14T08:25:46.176Z,994.47
2022-09-14T08:26:46.170Z,994.53
2022-09-14T08:27:46.162Z,994.54
2022-09-14T08:28:46.150Z,994.53
2022-09-14T08:29:46.137Z,994.53
2022-09-14T08:30:46.179Z,994.51
2022-09-14T08:31:46.139Z,994.54
2022-09-14T08:32:46.104Z,994.53
2022-09-14T08:33:46.095Z,994.54
2022-09-14T08:34:46.086Z,994.55
2022-09-14T08:35:46.075Z,994.6
2022-09-14T08:36:46.081Z,994.57
2022-09-14T08:37:46.068Z,994.5
2022-09-14T08:38:46.097Z,994.52
2022-09-14T08:39:46.033Z,994.46
2022-09-14T08:40:46.024Z,994.47
2022-09-14T08:41:46.025Z,994.46
2022-09-14T08:42:46.010Z,994.48
2022-09-14T08:43:46.052Z,994.46
2022-09-14T08:44:46.010Z,994.39
2022-09-14T08:45:46.025Z,994.46
2022-09-14T08:46:46.034Z,994.42
2022-09-14T08:47:45.957Z,994.39
2022-09-14T08:48:45.943Z,994.38
2022-09-14T08:49:45.943Z,994.37
2022-09-14T08:50:45.917Z,994.36
2022-09-14T08:51:45.913Z,994.39
2022-09-14T08:52:45.892Z,994.38
2022-09-14T08:53:45.884Z,994.36
2022-09-14T08:54:45.883Z,994.38
2022-09-14T08:55:45.862Z,994.33
2022-09-14T08:56:45.856Z,994.36
2022-09-14T08:57:45.862Z,994.39
2022-09-14T08:58:45.852Z,994.4
2022-09-14T08:59:45.819Z,994.3
2022-09-14T09:00:45.810Z,994.29
2022-09-14T09:01:45.814Z,994.26
2022-09-14T09:02:45.787Z,994.16
2022-09-14T09:03:45.794Z,994.16
2022-09-14T09:07:45.768Z,994.12
2022-09-14T09:08:45.728Z,994.12
2022-09-14T09:09:45.712Z,994.21
2022-09-14T09:10:45.703Z,994.19
2022-09-14T09:11:45.718Z,994.26
2022-09-14T09:12:45.693Z,994.23
2022-09-14T09:13:45.684Z,994.25
2022-09-14T09:14:45.658Z,994.24
2022-09-14T09:15:45.648Z,994.24
2022-09-14T09:16:45.635Z,994.23
2022-09-14T09:17:45.632Z,994.22
2022-09-14T09:18:45.629Z,994.14
2022-09-14T09:19:45.605Z,994.19
2022-09-14T09:20:45.603Z,994.09
2022-09-14T09:21:45.584Z,994.07
2022-09-14T09:22:45.581Z,994.12
2022-09-14T09:23:45.563Z,994.11
2022-09-14T09:24:45.566Z,994.15
2022-09-14T09:25:45.578Z,994.16
2022-09-14T09:26:45.547Z,994.11
2022-09-14T09:27:45.524Z,994.16
2022-09-14T09:28:45.510Z,994.09
2022-09-14T09:29:50.521Z,994.12
2022-09-14T09:30:46.493Z,994.09
2022-09-14T09:31:45.509Z,994.13
2022-09-14T09:32:45.488Z,994.2
2022-09-14T09:33:45.497Z,994.31
2022-09-14T09:34:45.447Z,994.3
2022-09-14T09:35:45.437Z,994.29
2022-09-14T09:36:45.439Z,994.31
2022-09-14T09:37:45.416Z,994.3
2022-09-14T09:38:45.415Z,994.3
2022-09-14T09:39:45.403Z,994.3
2022-09-14T09:40:45.387Z,994.33
2022-09-14T09:41:45.387Z,994.32
2022-09-14T09:42:45.370Z,994.3
2022-09-14T09:43:45.362Z,994.29
2022-09-14T09:44:45.349Z,994.32
2022-09-14T09:45:45.339Z,994.22
2022-09-14T09:46:45.372Z,994.28
2022-09-14T09:47:45.307Z,994.25
2022-09-14T09:48:45.294Z,994.21
2022-09-14T09:49:45.327Z,994.17
2022-09-14T09:50:45.277Z,994.13
2022-09-14T09:51:45.263Z,994.17
2022-09-14T09:52:45.249Z,994.1
2022-09-14T09:53:45.254Z,994.14
2022-09-14T09:54:45.233Z,994.11
2022-09-14T09:55:45.218Z,994.02
2022-09-14T09:56:45.220Z,994.06
2022-09-14T09:57:45.196Z,994.01
2022-09-14T09:58:45.189Z,993.98
2022-09-14T09:59:45.185Z,993.98
2022-09-14T10:00:45.213Z,993.94
2022-09-14T10:01:45.156Z,993.94
2022-09-14T10:02:45.140Z,993.98
2022-09-14T10:03:45.132Z,993.98
2022-09-14T10:04:45.119Z,994.02
2022-09-14T10:05:45.113Z,993.98
2022-09-14T10:06:45.101Z,993.93
2022-09-14T10:07:45.088Z,993.9
2022-09-14T10:08:45.100Z,993.86
2022-09-14T10:09:45.068Z,993.86
2022-09-14T10:10:45.063Z,993.88
2022-09-14T10:11:45.058Z,993.79
2022-09-14T10:12:45.032Z,993.81
2022-09-14T10:13:45.030Z,993.88
2022-09-14T10:14:45.012Z,993.88
2022-09-14T10:15:45.004Z,993.88
2022-09-14T10:16:44.990Z,993.92
2022-09-14T10:17:44.978Z,993.85
2022-09-14T10:18:44.973Z,993.86
2022-09-14T10:19:44.960Z,993.86
2022-09-14T10:20:44.949Z,993.86
2022-09-14T10:21:44.938Z,993.87
2022-09-14T10:22:44.932Z,993.88
2022-09-14T10:23:44.923Z,993.82
2022-09-14T10:24:44.926Z,993.86
2022-09-14T10:25:44.907Z,993.88
2022-09-14T10:26:44.903Z,993.89
2022-09-14T10:27:44.882Z,993.91
2022-09-14T10:28:44.873Z,993.9
2022-09-14T10:29:44.970Z,993.84
2022-09-14T10:30:44.864Z,993.83
2022-09-14T10:31:44.839Z,993.89
2022-09-14T10:32:44.825Z,993.88
2022-09-14T10:33:44.821Z,993.94
2022-09-14T10:34:44.807Z,993.89
2022-09-14T10:35:44.814Z,993.93
2022-09-14T10:36:44.788Z,993.93
2022-09-14T10:37:44.790Z,993.89
2022-09-14T10:38:44.769Z,993.92
2022-09-14T10:39:44.751Z,993.9
2022-09-14T10:40:44.746Z,993.96
2022-09-14T10:41:44.734Z,993.9
2022-09-14T10:42:44.725Z,993.93
2022-09-14T10:43:44.725Z,993.97
2022-09-14T10:44:44.726Z,993.99
2022-09-14T10:45:44.706Z,994
2022-09-14T10:46:44.694Z,993.99
2022-09-14T10:47:44.673Z,994
2022-09-14T10:48:44.657Z,993.96
2022-09-14T10:49:44.650Z,993.97
2022-09-14T10:50:44.660Z,993.93
2022-09-14T10:51:44.624Z,993.92
2022-09-14T10:52:44.616Z,993.92
2022-09-14T10:53:44.618Z,993.92
2022-09-14T10:54:44.592Z,993.89
2022-09-14T10:55:44.601Z,993.89
2022-09-14T10:56:44.581Z,993.89
2022-09-14T10:57:44.562Z,993.85
2022-09-14T10:58:44.559Z,993.79
2022-09-14T10:59:44.550Z,993.73
2022-09-14T11:00:44.532Z,993.69
2022-09-14T11:01:44.521Z,993.74
2022-09-14T11:02:44.512Z,993.68
2022-09-14T11:03:44.503Z,993.7
2022-09-14T11:04:44.494Z,993.7
2022-09-14T11:05:44.479Z,993.73
2022-09-14T11:06:44.468Z,993.7
2022-09-14T11:07:44.471Z,993.75
2022-09-14T11:08:44.447Z,993.78
2022-09-14T11:09:44.439Z,993.8
2022-09-14T11:10:44.429Z,993.79
2022-09-14T11:11:44.435Z,993.82
2022-09-14T11:12:44.408Z,993.79
2022-09-14T11:13:44.410Z,993.81
2022-09-14T11:14:44.383Z,993.76
2022-09-14T11:15:44.378Z,993.77
2022-09-14T11:16:44.369Z,993.75
2022-09-14T11:17:44.356Z,993.72
2022-09-14T11:18:44.347Z,993.7
2022-09-14T11:19:44.334Z,993.71
2022-09-14T11:20:44.325Z,993.68
2022-09-14T11:21:44.314Z,993.72
2022-09-14T11:22:44.315Z,993.71
2022-09-14T11:23:44.287Z,993.71
2022-09-14T11:24:44.282Z,993.76
2022-09-14T11:25:44.269Z,993.78
2022-09-14T11:26:44.271Z,993.76
2022-09-14T11:27:44.249Z,993.76
2022-09-14T11:28:44.236Z,993.78
2022-09-14T11:29:44.232Z,993.77
2022-09-14T11:30:44.235Z,993.79
2022-09-14T11:31:44.205Z,993.82
2022-09-14T11:32:44.193Z,993.78
2022-09-14T11:33:44.190Z,993.78
2022-09-14T11:34:44.185Z,993.83
2022-09-14T11:35:44.165Z,993.82
2022-09-14T11:36:44.167Z,993.82
2022-09-14T11:37:44.167Z,993.87
2022-09-14T11:38:44.158Z,993.85
2022-09-14T11:39:44.125Z,993.79
2022-09-14T11:40:44.112Z,993.83
2022-09-14T11:41:44.137Z,993.79
2022-09-14T11:42:44.093Z,993.88
2022-09-14T11:43:44.079Z,993.86
2022-09-14T11:44:44.071Z,993.83
2022-09-14T11:45:44.081Z,993.83
2022-09-14T11:46:44.056Z,993.85
2022-09-14T11:47:44.042Z,993.84
2022-09-14T11:48:44.041Z,993.8
2022-09-14T11:49:44.015Z,993.83
2022-09-14T11:50:44.005Z,993.89
2022-09-14T11:51:43.995Z,993.9
2022-09-14T11:52:43.985Z,993.82
2022-09-14T11:53:43.984Z,993.83
2022-09-14T11:54:43.989Z,993.87
2022-09-14T11:55:43.969Z,993.89
2022-09-14T11:56:43.950Z,993.85
2022-09-14T11:57:43.929Z,993.89
2022-09-14T11:58:43.953Z,993.89
2022-09-14T11:59:43.917Z,993.87
2022-09-14T12:00:43.942Z,993.9
2022-09-14T12:01:43.913Z,993.91
2022-09-14T12:02:43.897Z,993.9
2022-09-14T12:03:43.894Z,993.8
2022-09-14T12:04:43.859Z,993.78
2022-09-14T12:05:43.874Z,993.8
2022-09-14T12:06:43.840Z,993.78
2022-09-14T12:07:43.827Z,993.72
2022-09-14T12:08:43.817Z,993.77
2022-09-14T12:09:43.814Z,993.74
2022-09-14T12:10:43.797Z,993.75
2022-09-14T12:11:43.793Z,993.74
2022-09-14T12:12:43.809Z,993.69
2022-09-14T12:13:43.778Z,993.65
2022-09-14T12:14:43.762Z,993.68
2022-09-14T12:15:43.788Z,993.7
2022-09-14T12:16:43.733Z,993.72
2022-09-14T12:17:43.731Z,993.75
2022-09-14T12:18:43.712Z,993.74
2022-09-14T12:19:43.711Z,993.75
2022-09-14T12:20:43.700Z,993.76
2022-09-14T12:21:43.689Z,993.77
2022-09-14T12:22:43.687Z,993.69
2022-09-14T12:23:43.670Z,993.71
2022-09-14T12:24:43.661Z,993.74
2022-09-14T12:25:44.370Z,993.74
2022-09-14T12:26:43.630Z,993.69
2022-09-14T12:27:43.626Z,993.71
2022-09-14T12:28:43.612Z,993.66
2022-09-14T12:29:43.599Z,993.7
2022-09-14T12:30:43.589Z,993.71
2022-09-14T12:31:43.587Z,993.74
2022-09-14T12:32:43.572Z,993.72
2022-09-14T12:33:43.557Z,993.75
2022-09-14T12:34:43.547Z,993.79